sensor_id;sensor_type;location;lat;lon;timestamp;P1;durP1;ratioP1;P2;durP2;ratioP2
14554;SDS011;7364;50.870;4.722;2022-09-09T00:02:26;3.70;;;2.27;;
14554;SDS011;7364;50.870;4.722;2022-09-09T00:04:57;7.03;;;2.07;;
14554;SDS011;7364;50.870;4.722;2022-09-09T00:07:29;5.23;;;2.50;;
14554;SDS011;7364;50.870;4.722;2022-09-09T00:10:09;4.90;;;2.00;;
14554;SDS011;7364;50.870;4.722;2022-09-09T00:12:47;4.13;;;1.83;;
14554;SDS011;7364;50.870;4.722;2022-09-09T00:15:22;6.97;;;2.13;;
14554;SDS011;7364;50.870;4.722;2022-09-09T00:17:53;4.77;;;2.00;;
14554;SDS011;7364;50.870;4.722;2022-09-09T00:20:28;5.57;;;2.17;;
14554;SDS011;7364;50.870;4.722;2022-09-09T00:23:00;3.37;;;1.83;;
14554;SDS011;7364;50.870;4.722;2022-09-09T00:25:39;5.70;;;2.13;;
14554;SDS011;7364;50.870;4.722;2022-09-09T00:28:13;5.67;;;1.83;;
14554;SDS011;7364;50.870;4.722;2022-09-09T00:30:45;3.03;;;1.90;;
14554;SDS011;7364;50.870;4.722;2022-09-09T00:33:15;3.90;;;2.00;;
14554;SDS011;7364;50.870;4.722;2022-09-09T00:35:48;4.70;;;1.70;;
14554;SDS011;7364;50.870;4.722;2022-09-09T00:38:18;4.77;;;2.17;;
14554;SDS011;7364;50.870;4.722;2022-09-09T00:40:52;4.10;;;2.00;;
14554;SDS011;7364;50.870;4.722;2022-09-09T00:43:26;3.23;;;2.37;;
14554;SDS011;7364;50.870;4.722;2022-09-09T00:46:04;4.93;;;2.27;;
14554;SDS011;7364;50.870;4.722;2022-09-09T00:48:50;5.00;;;2.77;;
14554;SDS011;7364;50.870;4.722;2022-09-09T00:51:25;5.47;;;2.10;;
14554;SDS011;7364;50.870;4.722;2022-09-09T00:54:07;5.57;;;2.17;;
14554;SDS011;7364;50.870;4.722;2022-09-09T00:56:50;7.23;;;2.37;;
14554;SDS011;7364;50.870;4.722;2022-09-09T00:59:24;4.57;;;1.90;;
14554;SDS011;7364;50.870;4.722;2022-09-09T01:01:57;3.57;;;1.97;;
14554;SDS011;7364;50.870;4.722;2022-09-09T01:04:28;5.30;;;1.67;;
14554;SDS011;7364;50.870;4.722;2022-09-09T01:07:03;7.00;;;2.03;;
14554;SDS011;7364;50.870;4.722;2022-09-09T01:09:43;8.40;;;2.00;;
14554;SDS011;7364;50.870;4.722;2022-09-09T01:12:23;7.77;;;1.90;;
14554;SDS011;7364;50.870;4.722;2022-09-09T01:14:56;3.47;;;1.70;;
14554;SDS011;7364;50.870;4.722;2022-09-09T01:17:30;4.43;;;2.10;;
14554;SDS011;7364;50.870;4.722;2022-09-09T01:20:05;5.87;;;1.90;;
14554;SDS011;7364;50.870;4.722;2022-09-09T01:22:40;5.80;;;2.30;;
14554;SDS011;7364;50.870;4.722;2022-09-09T01:25:22;5.83;;;1.87;;
14554;SDS011;7364;50.870;4.722;2022-09-09T01:27:56;3.77;;;1.77;;
14554;SDS011;7364;50.870;4.722;2022-09-09T01:30:26;6.20;;;2.10;;
14554;SDS011;7364;50.870;4.722;2022-09-09T01:32:54;3.50;;;1.70;;
14554;SDS011;7364;50.870;4.722;2022-09-09T01:35:31;6.60;;;2.23;;
14554;SDS011;7364;50.870;4.722;2022-09-09T01:38:05;3.67;;;2.07;;
14554;SDS011;7364;50.870;4.722;2022-09-09T01:40:34;3.30;;;1.53;;
14554;SDS011;7364;50.870;4.722;2022-09-09T01:43:03;3.30;;;1.87;;
14554;SDS011;7364;50.870;4.722;2022-09-09T01:45:32;6.43;;;1.80;;
14554;SDS011;7364;50.870;4.722;2022-09-09T01:48:00;6.07;;;2.27;;
14554;SDS011;7364;50.870;4.722;2022-09-09T01:50:28;4.80;;;2.30;;
14554;SDS011;7364;50.870;4.722;2022-09-09T01:52:56;8.17;;;2.10;;
14554;SDS011;7364;50.870;4.722;2022-09-09T01:55:30;4.70;;;2.17;;
14554;SDS011;7364;50.870;4.722;2022-09-09T01:58:11;3.50;;;1.53;;
14554;SDS011;7364;50.870;4.722;2022-09-09T02:00:52;6.70;;;2.53;;
14554;SDS011;7364;50.870;4.722;2022-09-09T02:03:27;4.73;;;2.20;;
14554;SDS011;7364;50.870;4.722;2022-09-09T02:05:57;5.50;;;2.30;;
14554;SDS011;7364;50.870;4.722;2022-09-09T02:08:33;5.20;;;2.13;;
14554;SDS011;7364;50.870;4.722;2022-09-09T02:11:07;5.50;;;2.30;;
14554;SDS011;7364;50.870;4.722;2022-09-09T02:13:41;5.27;;;2.23;;
14554;SDS011;7364;50.870;4.722;2022-09-09T02:16:12;6.27;;;2.20;;
14554;SDS011;7364;50.870;4.722;2022-09-09T02:18:44;6.53;;;2.17;;
14554;SDS011;7364;50.870;4.722;2022-09-09T02:21:17;7.07;;;2.33;;
14554;SDS011;7364;50.870;4.722;2022-09-09T02:26:21;5.20;;;1.97;;
14554;SDS011;7364;50.870;4.722;2022-09-09T02:28:52;5.23;;;1.83;;
14554;SDS011;7364;50.870;4.722;2022-09-09T02:31:23;6.70;;;2.40;;
14554;SDS011;7364;50.870;4.722;2022-09-09T02:33:52;8.30;;;2.47;;
14554;SDS011;7364;50.870;4.722;2022-09-09T02:36:24;9.70;;;2.20;;
14554;SDS011;7364;50.870;4.722;2022-09-09T02:38:55;7.13;;;2.83;;
14554;SDS011;7364;50.870;4.722;2022-09-09T02:41:24;6.60;;;2.37;;
14554;SDS011;7364;50.870;4.722;2022-09-09T02:43:56;8.57;;;2.57;;
14554;SDS011;7364;50.870;4.722;2022-09-09T02:46:27;6.00;;;2.40;;
14554;SDS011;7364;50.870;4.722;2022-09-09T02:49:09;4.27;;;2.27;;
14554;SDS011;7364;50.870;4.722;2022-09-09T02:51:39;5.53;;;2.50;;
14554;SDS011;7364;50.870;4.722;2022-09-09T02:54:16;6.03;;;2.07;;
14554;SDS011;7364;50.870;4.722;2022-09-09T02:56:49;6.83;;;2.10;;
14554;SDS011;7364;50.870;4.722;2022-09-09T02:59:21;5.90;;;2.33;;
14554;SDS011;7364;50.870;4.722;2022-09-09T03:01:49;9.27;;;2.33;;
14554;SDS011;7364;50.870;4.722;2022-09-09T03:04:17;6.07;;;2.23;;
14554;SDS011;7364;50.870;4.722;2022-09-09T03:06:49;5.77;;;1.80;;
14554;SDS011;7364;50.870;4.722;2022-09-09T03:09:16;7.53;;;2.60;;
14554;SDS011;7364;50.870;4.722;2022-09-09T03:11:43;6.97;;;2.30;;
14554;SDS011;7364;50.870;4.722;2022-09-09T03:14:11;9.83;;;2.73;;
14554;SDS011;7364;50.870;4.722;2022-09-09T03:16:39;6.77;;;2.77;;
14554;SDS011;7364;50.870;4.722;2022-09-09T03:19:07;8.80;;;2.50;;
14554;SDS011;7364;50.870;4.722;2022-09-09T03:21:34;6.60;;;2.57;;
14554;SDS011;7364;50.870;4.722;2022-09-09T03:24:02;5.40;;;2.00;;
14554;SDS011;7364;50.870;4.722;2022-09-09T03:26:29;8.93;;;2.23;;
14554;SDS011;7364;50.870;4.722;2022-09-09T03:28:56;9.50;;;2.40;;
14554;SDS011;7364;50.870;4.722;2022-09-09T03:31:25;9.07;;;3.00;;
14554;SDS011;7364;50.870;4.722;2022-09-09T03:33:56;7.33;;;2.60;;
14554;SDS011;7364;50.870;4.722;2022-09-09T03:36:24;10.07;;;2.97;;
14554;SDS011;7364;50.870;4.722;2022-09-09T03:38:53;6.27;;;2.23;;
14554;SDS011;7364;50.870;4.722;2022-09-09T03:41:21;8.40;;;2.70;;
14554;SDS011;7364;50.870;4.722;2022-09-09T03:43:49;5.57;;;2.53;;
14554;SDS011;7364;50.870;4.722;2022-09-09T03:46:17;6.30;;;2.17;;
14554;SDS011;7364;50.870;4.722;2022-09-09T03:48:45;7.47;;;2.53;;
14554;SDS011;7364;50.870;4.722;2022-09-09T03:51:14;6.53;;;2.47;;
14554;SDS011;7364;50.870;4.722;2022-09-09T03:53:42;4.37;;;2.13;;
14554;SDS011;7364;50.870;4.722;2022-09-09T03:56:09;5.63;;;2.53;;
14554;SDS011;7364;50.870;4.722;2022-09-09T03:58:36;9.10;;;2.90;;
14554;SDS011;7364;50.870;4.722;2022-09-09T04:01:05;7.70;;;2.30;;
14554;SDS011;7364;50.870;4.722;2022-09-09T04:03:34;8.07;;;3.07;;
14554;SDS011;7364;50.870;4.722;2022-09-09T04:06:02;8.60;;;2.93;;
14554;SDS011;7364;50.870;4.722;2022-09-09T04:08:33;11.13;;;2.67;;
14554;SDS011;7364;50.870;4.722;2022-09-09T04:11:01;5.93;;;2.30;;
14554;SDS011;7364;50.870;4.722;2022-09-09T04:13:31;6.23;;;2.30;;
14554;SDS011;7364;50.870;4.722;2022-09-09T04:16:01;8.80;;;2.67;;
14554;SDS011;7364;50.870;4.722;2022-09-09T04:18:29;8.90;;;2.50;;
14554;SDS011;7364;50.870;4.722;2022-09-09T04:20:57;11.63;;;2.50;;
14554;SDS011;7364;50.870;4.722;2022-09-09T04:23:24;7.67;;;2.27;;
14554;SDS011;7364;50.870;4.722;2022-09-09T04:25:57;8.90;;;3.00;;
14554;SDS011;7364;50.870;4.722;2022-09-09T04:28:26;10.73;;;2.53;;
14554;SDS011;7364;50.870;4.722;2022-09-09T04:30:55;9.63;;;3.33;;
14554;SDS011;7364;50.870;4.722;2022-09-09T04:33:23;10.07;;;2.80;;
14554;SDS011;7364;50.870;4.722;2022-09-09T04:35:52;9.57;;;2.63;;
14554;SDS011;7364;50.870;4.722;2022-09-09T04:38:20;7.30;;;2.80;;
14554;SDS011;7364;50.870;4.722;2022-09-09T04:40:49;5.37;;;2.17;;
14554;SDS011;7364;50.870;4.722;2022-09-09T04:43:20;5.47;;;2.43;;
14554;SDS011;7364;50.870;4.722;2022-09-09T04:45:48;9.77;;;3.00;;
14554;SDS011;7364;50.870;4.722;2022-09-09T04:48:16;8.00;;;2.73;;
14554;SDS011;7364;50.870;4.722;2022-09-09T04:50:44;5.30;;;2.30;;
14554;SDS011;7364;50.870;4.722;2022-09-09T04:53:22;7.57;;;2.53;;
14554;SDS011;7364;50.870;4.722;2022-09-09T04:55:50;8.17;;;3.23;;
14554;SDS011;7364;50.870;4.722;2022-09-09T04:58:17;9.30;;;2.27;;
14554;SDS011;7364;50.870;4.722;2022-09-09T05:00:48;8.17;;;3.10;;
14554;SDS011;7364;50.870;4.722;2022-09-09T05:03:15;7.83;;;2.83;;
14554;SDS011;7364;50.870;4.722;2022-09-09T05:05:43;10.13;;;3.43;;
14554;SDS011;7364;50.870;4.722;2022-09-09T05:08:10;8.73;;;3.43;;
14554;SDS011;7364;50.870;4.722;2022-09-09T05:10:37;10.47;;;2.93;;
14554;SDS011;7364;50.870;4.722;2022-09-09T05:13:07;7.80;;;3.07;;
14554;SDS011;7364;50.870;4.722;2022-09-09T05:15:34;8.90;;;3.53;;
14554;SDS011;7364;50.870;4.722;2022-09-09T05:18:02;10.23;;;3.50;;
14554;SDS011;7364;50.870;4.722;2022-09-09T05:20:30;8.63;;;3.50;;
14554;SDS011;7364;50.870;4.722;2022-09-09T05:22:57;9.40;;;3.33;;
14554;SDS011;7364;50.870;4.722;2022-09-09T05:25:24;10.63;;;3.30;;
14554;SDS011;7364;50.870;4.722;2022-09-09T05:27:51;6.43;;;2.97;;
14554;SDS011;7364;50.870;4.722;2022-09-09T05:30:20;8.40;;;3.20;;
14554;SDS011;7364;50.870;4.722;2022-09-09T05:32:48;7.80;;;3.13;;
14554;SDS011;7364;50.870;4.722;2022-09-09T05:35:17;9.30;;;3.33;;
14554;SDS011;7364;50.870;4.722;2022-09-09T05:37:44;9.23;;;3.17;;
14554;SDS011;7364;50.870;4.722;2022-09-09T05:40:13;8.03;;;3.43;;
14554;SDS011;7364;50.870;4.722;2022-09-09T05:42:40;6.90;;;3.00;;
14554;SDS011;7364;50.870;4.722;2022-09-09T05:45:10;10.83;;;3.20;;
14554;SDS011;7364;50.870;4.722;2022-09-09T05:47:37;11.13;;;3.37;;
14554;SDS011;7364;50.870;4.722;2022-09-09T05:50:04;9.43;;;2.67;;
14554;SDS011;7364;50.870;4.722;2022-09-09T05:52:34;8.50;;;2.87;;
14554;SDS011;7364;50.870;4.722;2022-09-09T05:55:01;6.37;;;2.63;;
14554;SDS011;7364;50.870;4.722;2022-09-09T05:57:29;9.20;;;3.37;;
14554;SDS011;7364;50.870;4.722;2022-09-09T05:59:56;8.73;;;3.40;;
14554;SDS011;7364;50.870;4.722;2022-09-09T06:02:24;8.53;;;3.10;;
14554;SDS011;7364;50.870;4.722;2022-09-09T06:04:52;9.57;;;2.83;;
14554;SDS011;7364;50.870;4.722;2022-09-09T06:07:20;8.37;;;2.97;;
14554;SDS011;7364;50.870;4.722;2022-09-09T06:09:49;7.67;;;3.10;;
14554;SDS011;7364;50.870;4.722;2022-09-09T06:12:17;6.67;;;2.87;;
14554;SDS011;7364;50.870;4.722;2022-09-09T06:14:44;14.43;;;3.30;;
14554;SDS011;7364;50.870;4.722;2022-09-09T06:17:11;8.73;;;2.87;;
14554;SDS011;7364;50.870;4.722;2022-09-09T06:19:38;6.43;;;2.83;;
14554;SDS011;7364;50.870;4.722;2022-09-09T06:22:07;7.60;;;3.30;;
14554;SDS011;7364;50.870;4.722;2022-09-09T06:24:39;9.20;;;3.40;;
14554;SDS011;7364;50.870;4.722;2022-09-09T06:27:08;10.53;;;3.40;;
14554;SDS011;7364;50.870;4.722;2022-09-09T06:29:36;7.53;;;2.50;;
14554;SDS011;7364;50.870;4.722;2022-09-09T06:32:05;7.97;;;3.00;;
14554;SDS011;7364;50.870;4.722;2022-09-09T06:34:33;8.57;;;2.87;;
14554;SDS011;7364;50.870;4.722;2022-09-09T06:37:02;8.33;;;3.37;;
14554;SDS011;7364;50.870;4.722;2022-09-09T06:39:31;4.03;;;2.40;;
14554;SDS011;7364;50.870;4.722;2022-09-09T06:41:58;9.30;;;3.23;;
14554;SDS011;7364;50.870;4.722;2022-09-09T06:44:27;9.67;;;2.83;;
14554;SDS011;7364;50.870;4.722;2022-09-09T06:46:55;10.83;;;2.70;;
14554;SDS011;7364;50.870;4.722;2022-09-09T06:49:22;8.37;;;3.10;;
14554;SDS011;7364;50.870;4.722;2022-09-09T06:51:50;9.40;;;3.27;;
14554;SDS011;7364;50.870;4.722;2022-09-09T06:54:17;5.93;;;2.47;;
14554;SDS011;7364;50.870;4.722;2022-09-09T06:56:45;7.43;;;2.70;;
14554;SDS011;7364;50.870;4.722;2022-09-09T06:59:12;8.17;;;3.07;;
14554;SDS011;7364;50.870;4.722;2022-09-09T07:01:41;9.57;;;3.20;;
14554;SDS011;7364;50.870;4.722;2022-09-09T07:04:09;8.13;;;2.33;;
14554;SDS011;7364;50.870;4.722;2022-09-09T07:06:39;5.50;;;2.50;;
14554;SDS011;7364;50.870;4.722;2022-09-09T07:09:09;10.17;;;3.07;;
14554;SDS011;7364;50.870;4.722;2022-09-09T07:11:38;9.30;;;2.33;;
14554;SDS011;7364;50.870;4.722;2022-09-09T07:14:07;15.10;;;2.83;;
14554;SDS011;7364;50.870;4.722;2022-09-09T07:16:37;9.30;;;3.07;;
14554;SDS011;7364;50.870;4.722;2022-09-09T07:19:06;7.07;;;3.10;;
14554;SDS011;7364;50.870;4.722;2022-09-09T07:21:33;12.17;;;2.97;;
14554;SDS011;7364;50.870;4.722;2022-09-09T07:24:01;11.97;;;3.33;;
14554;SDS011;7364;50.870;4.722;2022-09-09T07:26:34;5.97;;;2.67;;
14554;SDS011;7364;50.870;4.722;2022-09-09T07:29:05;9.70;;;3.10;;
14554;SDS011;7364;50.870;4.722;2022-09-09T07:31:33;8.07;;;2.97;;
14554;SDS011;7364;50.870;4.722;2022-09-09T07:34:02;5.00;;;2.07;;
14554;SDS011;7364;50.870;4.722;2022-09-09T07:36:31;10.90;;;2.80;;
14554;SDS011;7364;50.870;4.722;2022-09-09T07:39:03;9.30;;;2.53;;
14554;SDS011;7364;50.870;4.722;2022-09-09T07:41:32;9.60;;;3.30;;
14554;SDS011;7364;50.870;4.722;2022-09-09T07:44:03;11.23;;;2.93;;
14554;SDS011;7364;50.870;4.722;2022-09-09T07:46:31;10.23;;;2.80;;
14554;SDS011;7364;50.870;4.722;2022-09-09T07:49:02;11.10;;;3.30;;
14554;SDS011;7364;50.870;4.722;2022-09-09T07:51:31;9.37;;;3.00;;
14554;SDS011;7364;50.870;4.722;2022-09-09T07:54:00;7.87;;;3.03;;
14554;SDS011;7364;50.870;4.722;2022-09-09T07:56:34;7.07;;;2.53;;
14554;SDS011;7364;50.870;4.722;2022-09-09T07:59:02;9.03;;;3.20;;
14554;SDS011;7364;50.870;4.722;2022-09-09T08:01:33;7.40;;;2.40;;
14554;SDS011;7364;50.870;4.722;2022-09-09T08:04:04;11.43;;;3.10;;
14554;SDS011;7364;50.870;4.722;2022-09-09T08:06:42;11.50;;;2.67;;
14554;SDS011;7364;50.870;4.722;2022-09-09T08:09:11;8.97;;;2.70;;
14554;SDS011;7364;50.870;4.722;2022-09-09T08:11:42;14.80;;;3.07;;
14554;SDS011;7364;50.870;4.722;2022-09-09T08:14:11;5.77;;;2.40;;
14554;SDS011;7364;50.870;4.722;2022-09-09T08:16:41;5.57;;;2.37;;
14554;SDS011;7364;50.870;4.722;2022-09-09T08:19:10;7.20;;;2.60;;
14554;SDS011;7364;50.870;4.722;2022-09-09T08:21:42;6.30;;;2.80;;
14554;SDS011;7364;50.870;4.722;2022-09-09T08:24:11;7.10;;;2.40;;
14554;SDS011;7364;50.870;4.722;2022-09-09T08:26:40;10.60;;;2.50;;
14554;SDS011;7364;50.870;4.722;2022-09-09T08:29:10;9.43;;;2.77;;
14554;SDS011;7364;50.870;4.722;2022-09-09T08:31:40;9.30;;;2.30;;
14554;SDS011;7364;50.870;4.722;2022-09-09T08:34:09;7.93;;;2.23;;
14554;SDS011;7364;50.870;4.722;2022-09-09T08:36:37;9.30;;;2.80;;
14554;SDS011;7364;50.870;4.722;2022-09-09T08:39:09;9.00;;;3.03;;
14554;SDS011;7364;50.870;4.722;2022-09-09T08:41:40;11.17;;;3.47;;
14554;SDS011;7364;50.870;4.722;2022-09-09T08:44:22;6.77;;;2.50;;
14554;SDS011;7364;50.870;4.722;2022-09-09T08:46:57;7.63;;;2.37;;
14554;SDS011;7364;50.870;4.722;2022-09-09T08:49:35;9.07;;;3.13;;
14554;SDS011;7364;50.870;4.722;2022-09-09T08:52:14;6.83;;;2.10;;
14554;SDS011;7364;50.870;4.722;2022-09-09T08:54:47;10.03;;;2.53;;
14554;SDS011;7364;50.870;4.722;2022-09-09T08:57:17;7.90;;;2.40;;
14554;SDS011;7364;50.870;4.722;2022-09-09T08:59:49;8.80;;;2.77;;
14554;SDS011;7364;50.870;4.722;2022-09-09T09:02:20;6.57;;;2.83;;
14554;SDS011;7364;50.870;4.722;2022-09-09T09:05:00;8.73;;;3.10;;
14554;SDS011;7364;50.870;4.722;2022-09-09T09:07:38;6.77;;;2.50;;
14554;SDS011;7364;50.870;4.722;2022-09-09T09:10:19;8.57;;;2.90;;
14554;SDS011;7364;50.870;4.722;2022-09-09T09:12:59;9.00;;;2.97;;
14554;SDS011;7364;50.870;4.722;2022-09-09T09:15:28;7.80;;;3.03;;
14554;SDS011;7364;50.870;4.722;2022-09-09T09:18:01;6.27;;;2.73;;
14554;SDS011;7364;50.870;4.722;2022-09-09T09:20:32;8.33;;;2.87;;
14554;SDS011;7364;50.870;4.722;2022-09-09T09:23:09;7.97;;;2.97;;
14554;SDS011;7364;50.870;4.722;2022-09-09T09:25:50;10.20;;;4.07;;
14554;SDS011;7364;50.870;4.722;2022-09-09T09:28:20;12.93;;;3.53;;
14554;SDS011;7364;50.870;4.722;2022-09-09T09:30:52;9.47;;;2.57;;
14554;SDS011;7364;50.870;4.722;2022-09-09T09:33:23;5.33;;;2.73;;
14554;SDS011;7364;50.870;4.722;2022-09-09T09:35:58;9.87;;;3.60;;
14554;SDS011;7364;50.870;4.722;2022-09-09T09:38:28;8.60;;;3.17;;
14554;SDS011;7364;50.870;4.722;2022-09-09T09:40:58;5.90;;;3.07;;
14554;SDS011;7364;50.870;4.722;2022-09-09T09:43:27;7.70;;;3.07;;
14554;SDS011;7364;50.870;4.722;2022-09-09T09:45:55;7.23;;;3.10;;
14554;SDS011;7364;50.870;4.722;2022-09-09T09:48:24;7.83;;;3.20;;
14554;SDS011;7364;50.870;4.722;2022-09-09T09:50:52;5.20;;;2.67;;
14554;SDS011;7364;50.870;4.722;2022-09-09T09:53:23;7.07;;;3.30;;
14554;SDS011;7364;50.870;4.722;2022-09-09T09:55:55;6.87;;;3.43;;
14554;SDS011;7364;50.870;4.722;2022-09-09T09:58:26;7.57;;;3.30;;
14554;SDS011;7364;50.870;4.722;2022-09-09T10:00:57;8.83;;;3.07;;
14554;SDS011;7364;50.870;4.722;2022-09-09T10:03:28;6.27;;;2.93;;
14554;SDS011;7364;50.870;4.722;2022-09-09T10:05:56;5.93;;;2.90;;
14554;SDS011;7364;50.870;4.722;2022-09-09T10:08:24;14.07;;;3.07;;
14554;SDS011;7364;50.870;4.722;2022-09-09T10:10:56;8.13;;;2.93;;
14554;SDS011;7364;50.870;4.722;2022-09-09T10:13:34;5.93;;;2.50;;
14554;SDS011;7364;50.870;4.722;2022-09-09T10:16:10;10.97;;;3.73;;
14554;SDS011;7364;50.870;4.722;2022-09-09T10:18:49;8.30;;;2.90;;
14554;SDS011;7364;50.870;4.722;2022-09-09T10:21:28;9.03;;;3.27;;
14554;SDS011;7364;50.870;4.722;2022-09-09T10:24:26;9.13;;;3.20;;
14554;SDS011;7364;50.870;4.722;2022-09-09T10:27:14;8.10;;;2.93;;
14554;SDS011;7364;50.870;4.722;2022-09-09T10:29:56;7.73;;;2.90;;
14554;SDS011;7364;50.870;4.722;2022-09-09T10:32:38;9.50;;;3.43;;
14554;SDS011;7364;50.870;4.722;2022-09-09T10:35:12;9.83;;;3.10;;
14554;SDS011;7364;50.870;4.722;2022-09-09T10:40:58;7.03;;;3.20;;
14554;SDS011;7364;50.870;4.722;2022-09-09T10:46:36;7.23;;;2.77;;
14554;SDS011;7364;50.870;4.722;2022-09-09T10:49:15;6.43;;;3.17;;
14554;SDS011;7364;50.870;4.722;2022-09-09T10:51:56;6.33;;;2.87;;
14554;SDS011;7364;50.870;4.722;2022-09-09T10:54:41;7.77;;;2.63;;
14554;SDS011;7364;50.870;4.722;2022-09-09T10:57:22;7.97;;;3.03;;
14554;SDS011;7364;50.870;4.722;2022-09-09T10:59:56;12.67;;;3.73;;
14554;SDS011;7364;50.870;4.722;2022-09-09T11:02:32;9.93;;;3.43;;
14554;SDS011;7364;50.870;4.722;2022-09-09T11:05:02;9.30;;;3.97;;
14554;SDS011;7364;50.870;4.722;2022-09-09T11:07:35;9.53;;;3.17;;
14554;SDS011;7364;50.870;4.722;2022-09-09T11:10:11;8.90;;;3.30;;
14554;SDS011;7364;50.870;4.722;2022-09-09T11:12:46;6.93;;;3.07;;
14554;SDS011;7364;50.870;4.722;2022-09-09T11:15:17;9.20;;;3.33;;
14554;SDS011;7364;50.870;4.722;2022-09-09T11:17:52;11.13;;;3.00;;
14554;SDS011;7364;50.870;4.722;2022-09-09T11:20:27;8.47;;;3.13;;
14554;SDS011;7364;50.870;4.722;2022-09-09T11:22:58;5.37;;;2.50;;
14554;SDS011;7364;50.870;4.722;2022-09-09T11:25:31;10.67;;;3.07;;
14554;SDS011;7364;50.870;4.722;2022-09-09T11:28:06;11.73;;;2.97;;
14554;SDS011;7364;50.870;4.722;2022-09-09T11:30:54;9.87;;;3.07;;
14554;SDS011;7364;50.870;4.722;2022-09-09T11:33:51;6.50;;;3.03;;
14554;SDS011;7364;50.870;4.722;2022-09-09T11:36:32;7.83;;;2.50;;
14554;SDS011;7364;50.870;4.722;2022-09-09T11:39:28;6.83;;;2.83;;
14554;SDS011;7364;50.870;4.722;2022-09-09T11:42:15;6.50;;;2.53;;
14554;SDS011;7364;50.870;4.722;2022-09-09T11:44:45;9.23;;;2.37;;
14554;SDS011;7364;50.870;4.722;2022-09-09T11:47:22;6.43;;;2.20;;
14554;SDS011;7364;50.870;4.722;2022-09-09T11:50:06;5.10;;;2.20;;
14554;SDS011;7364;50.870;4.722;2022-09-09T11:52:36;6.40;;;2.37;;
14554;SDS011;7364;50.870;4.722;2022-09-09T11:55:08;9.07;;;2.17;;
14554;SDS011;7364;50.870;4.722;2022-09-09T11:57:40;8.53;;;2.33;;
14554;SDS011;7364;50.870;4.722;2022-09-09T12:03:00;10.03;;;2.77;;
14554;SDS011;7364;50.870;4.722;2022-09-09T12:05:39;6.07;;;2.70;;
14554;SDS011;7364;50.870;4.722;2022-09-09T12:08:15;9.63;;;2.67;;
14554;SDS011;7364;50.870;4.722;2022-09-09T12:10:54;5.90;;;2.40;;
14554;SDS011;7364;50.870;4.722;2022-09-09T12:13:26;4.73;;;1.80;;
14554;SDS011;7364;50.870;4.722;2022-09-09T12:15:54;4.60;;;2.20;;
14554;SDS011;7364;50.870;4.722;2022-09-09T12:18:23;4.83;;;2.03;;
14554;SDS011;7364;50.870;4.722;2022-09-09T12:20:54;6.30;;;2.63;;
14554;SDS011;7364;50.870;4.722;2022-09-09T12:23:35;5.77;;;2.00;;
14554;SDS011;7364;50.870;4.722;2022-09-09T12:26:19;9.53;;;2.33;;
14554;SDS011;7364;50.870;4.722;2022-09-09T12:28:56;5.50;;;2.07;;
14554;SDS011;7364;50.870;4.722;2022-09-09T12:31:43;3.13;;;1.50;;
14554;SDS011;7364;50.870;4.722;2022-09-09T12:34:15;5.40;;;2.17;;
14554;SDS011;7364;50.870;4.722;2022-09-09T12:36:53;7.23;;;2.03;;
14554;SDS011;7364;50.870;4.722;2022-09-09T12:39:27;8.40;;;2.60;;
14554;SDS011;7364;50.870;4.722;2022-09-09T12:42:00;7.83;;;2.33;;
14554;SDS011;7364;50.870;4.722;2022-09-09T12:44:29;6.67;;;2.10;;
14554;SDS011;7364;50.870;4.722;2022-09-09T12:47:02;5.90;;;2.30;;
14554;SDS011;7364;50.870;4.722;2022-09-09T12:49:31;6.63;;;2.23;;
14554;SDS011;7364;50.870;4.722;2022-09-09T12:52:06;4.83;;;2.07;;
14554;SDS011;7364;50.870;4.722;2022-09-09T12:54:42;4.40;;;2.23;;
14554;SDS011;7364;50.870;4.722;2022-09-09T12:57:19;6.00;;;1.80;;
14554;SDS011;7364;50.870;4.722;2022-09-09T12:59:50;6.43;;;2.20;;
14554;SDS011;7364;50.870;4.722;2022-09-09T13:02:19;6.63;;;2.30;;
14554;SDS011;7364;50.870;4.722;2022-09-09T13:04:48;6.23;;;2.20;;
14554;SDS011;7364;50.870;4.722;2022-09-09T13:07:19;6.40;;;2.10;;
14554;SDS011;7364;50.870;4.722;2022-09-09T13:09:47;4.53;;;2.27;;
14554;SDS011;7364;50.870;4.722;2022-09-09T13:12:19;6.73;;;2.13;;
14554;SDS011;7364;50.870;4.722;2022-09-09T13:14:48;5.37;;;2.07;;
14554;SDS011;7364;50.870;4.722;2022-09-09T13:17:20;5.50;;;1.87;;
14554;SDS011;7364;50.870;4.722;2022-09-09T13:19:49;3.30;;;1.73;;
14554;SDS011;7364;50.870;4.722;2022-09-09T13:22:23;5.90;;;2.20;;
14554;SDS011;7364;50.870;4.722;2022-09-09T13:24:58;3.07;;;1.30;;
14554;SDS011;7364;50.870;4.722;2022-09-09T13:27:29;5.67;;;1.67;;
14554;SDS011;7364;50.870;4.722;2022-09-09T13:29:59;4.33;;;1.93;;
14554;SDS011;7364;50.870;4.722;2022-09-09T13:32:27;3.93;;;1.47;;
14554;SDS011;7364;50.870;4.722;2022-09-09T13:34:57;4.90;;;2.00;;
14554;SDS011;7364;50.870;4.722;2022-09-09T13:37:29;4.50;;;1.70;;
14554;SDS011;7364;50.870;4.722;2022-09-09T13:40:00;3.27;;;1.67;;
14554;SDS011;7364;50.870;4.722;2022-09-09T13:42:31;3.57;;;1.67;;
14554;SDS011;7364;50.870;4.722;2022-09-09T13:45:01;6.80;;;2.03;;
14554;SDS011;7364;50.870;4.722;2022-09-09T13:47:30;2.63;;;1.50;;
14554;SDS011;7364;50.870;4.722;2022-09-09T13:50:09;4.57;;;1.73;;
14554;SDS011;7364;50.870;4.722;2022-09-09T13:52:45;5.60;;;1.80;;
14554;SDS011;7364;50.870;4.722;2022-09-09T13:55:15;3.53;;;1.63;;
14554;SDS011;7364;50.870;4.722;2022-09-09T13:57:51;2.87;;;1.53;;
14554;SDS011;7364;50.870;4.722;2022-09-09T14:00:19;2.23;;;1.20;;
14554;SDS011;7364;50.870;4.722;2022-09-09T14:02:54;4.80;;;1.70;;
14554;SDS011;7364;50.870;4.722;2022-09-09T14:05:22;4.20;;;1.70;;
14554;SDS011;7364;50.870;4.722;2022-09-09T14:07:51;3.70;;;1.50;;
14554;SDS011;7364;50.870;4.722;2022-09-09T14:10:19;2.70;;;1.63;;
14554;SDS011;7364;50.870;4.722;2022-09-09T14:12:47;3.53;;;1.80;;
14554;SDS011;7364;50.870;4.722;2022-09-09T14:15:14;3.70;;;1.40;;
14554;SDS011;7364;50.870;4.722;2022-09-09T14:17:43;4.30;;;1.60;;
14554;SDS011;7364;50.870;4.722;2022-09-09T14:20:10;4.67;;;1.83;;
14554;SDS011;7364;50.870;4.722;2022-09-09T14:22:40;5.30;;;1.47;;
14554;SDS011;7364;50.870;4.722;2022-09-09T14:25:12;2.50;;;1.50;;
14554;SDS011;7364;50.870;4.722;2022-09-09T14:27:42;5.00;;;1.60;;
14554;SDS011;7364;50.870;4.722;2022-09-09T14:30:11;5.33;;;1.60;;
14554;SDS011;7364;50.870;4.722;2022-09-09T14:32:38;4.93;;;2.13;;
14554;SDS011;7364;50.870;4.722;2022-09-09T14:35:06;6.40;;;2.10;;
14554;SDS011;7364;50.870;4.722;2022-09-09T14:37:35;4.80;;;1.40;;
14554;SDS011;7364;50.870;4.722;2022-09-09T14:40:05;3.00;;;1.30;;
14554;SDS011;7364;50.870;4.722;2022-09-09T14:42:35;5.73;;;1.80;;
14554;SDS011;7364;50.870;4.722;2022-09-09T14:45:02;3.23;;;1.60;;
14554;SDS011;7364;50.870;4.722;2022-09-09T14:47:30;2.37;;;1.47;;
14554;SDS011;7364;50.870;4.722;2022-09-09T14:49:58;3.40;;;1.73;;
14554;SDS011;7364;50.870;4.722;2022-09-09T14:52:26;6.80;;;2.00;;
14554;SDS011;7364;50.870;4.722;2022-09-09T14:54:56;2.73;;;1.67;;
14554;SDS011;7364;50.870;4.722;2022-09-09T14:57:23;3.43;;;1.67;;
14554;SDS011;7364;50.870;4.722;2022-09-09T14:59:52;3.90;;;1.70;;
14554;SDS011;7364;50.870;4.722;2022-09-09T15:02:19;4.20;;;1.97;;
14554;SDS011;7364;50.870;4.722;2022-09-09T15:04:46;3.17;;;1.60;;
14554;SDS011;7364;50.870;4.722;2022-09-09T15:07:15;3.03;;;1.70;;
14554;SDS011;7364;50.870;4.722;2022-09-09T15:09:44;3.30;;;1.63;;
14554;SDS011;7364;50.870;4.722;2022-09-09T15:12:12;3.97;;;1.67;;
14554;SDS011;7364;50.870;4.722;2022-09-09T15:14:40;4.43;;;1.77;;
14554;SDS011;7364;50.870;4.722;2022-09-09T15:17:09;5.80;;;1.90;;
14554;SDS011;7364;50.870;4.722;2022-09-09T15:19:36;4.23;;;1.70;;
14554;SDS011;7364;50.870;4.722;2022-09-09T15:22:14;6.37;;;2.33;;
14554;SDS011;7364;50.870;4.722;2022-09-09T15:24:47;4.10;;;1.70;;
14554;SDS011;7364;50.870;4.722;2022-09-09T15:27:16;5.47;;;1.70;;
14554;SDS011;7364;50.870;4.722;2022-09-09T15:29:43;3.77;;;1.43;;
14554;SDS011;7364;50.870;4.722;2022-09-09T15:32:12;4.00;;;1.70;;
14554;SDS011;7364;50.870;4.722;2022-09-09T15:34:39;3.93;;;1.77;;
14554;SDS011;7364;50.870;4.722;2022-09-09T15:37:09;1.93;;;1.27;;
14554;SDS011;7364;50.870;4.722;2022-09-09T15:39:40;5.70;;;1.80;;